createdAt,value
2018-09-29T00:00:29.161Z,5.70
2018-09-29T00:02:59.251Z,5.60
2018-09-29T00:05:29.396Z,5.50
2018-09-29T00:07:59.462Z,5.50
2018-09-29T00:10:29.569Z,5.40
2018-09-29T00:12:59.642Z,5.40
2018-09-29T00:15:29.723Z,5.30
2018-09-29T00:17:59.842Z,5.20
2018-09-29T00:20:30.070Z,5.20
2018-09-29T00:23:00.182Z,5.20
2018-09-29T00:25:30.288Z,5.10
2018-09-29T00:28:00.354Z,5.10
2018-09-29T00:30:30.509Z,5.00
2018-09-29T00:33:00.596Z,5.10
2018-09-29T00:35:30.709Z,5.00
2018-09-29T00:38:00.817Z,5.00
2018-09-29T00:40:30.932Z,4.90
2018-09-29T00:43:01.017Z,4.90
2018-09-29T00:45:31.433Z,4.80
2018-09-29T00:48:01.539Z,4.80
2018-09-29T00:50:31.628Z,4.70
2018-09-29T00:53:01.754Z,4.70
2018-09-29T00:55:31.896Z,4.70
2018-09-29T00:58:01.961Z,4.60
2018-09-29T01:00:32.071Z,4.60
2018-09-29T01:03:02.217Z,4.60
2018-09-29T01:05:32.356Z,4.60
2018-09-29T01:08:02.521Z,4.50
2018-09-29T01:10:32.667Z,4.50
2018-09-29T01:13:02.736Z,4.50
2018-09-29T01:15:32.896Z,4.40
2018-09-29T01:18:02.988Z,4.40
2018-09-29T01:20:33.165Z,4.30
2018-09-29T01:23:03.342Z,4.30
2018-09-29T01:25:33.549Z,4.30
2018-09-29T01:28:03.618Z,4.30
2018-09-29T01:30:33.753Z,4.30
2018-09-29T01:33:03.917Z,4.20
2018-09-29T01:35:33.999Z,4.20
2018-09-29T01:38:04.075Z,4.20
2018-09-29T01:40:34.195Z,4.20
2018-09-29T01:43:04.295Z,4.20
2018-09-29T01:45:34.377Z,4.10
2018-09-29T01:48:04.489Z,4.10
2018-09-29T01:50:34.605Z,4.10
2018-09-29T01:53:04.935Z,4.00
2018-09-29T01:55:35.047Z,4.00
2018-09-29T01:58:05.322Z,4.10
2018-09-29T02:00:35.607Z,4.10
2018-09-29T02:03:09.960Z,4.00
2018-09-29T02:05:41.581Z,4.00
2018-09-29T02:08:11.763Z,4.00
2018-09-29T02:10:41.946Z,4.00
2018-09-29T02:13:12.055Z,4.00
2018-09-29T02:15:42.190Z,3.90
2018-09-29T02:18:12.307Z,3.80
2018-09-29T02:20:42.437Z,3.80
2018-09-29T02:23:12.499Z,3.90
2018-09-29T02:25:42.604Z,3.90
2018-09-29T02:28:12.777Z,3.80
2018-09-29T02:30:42.947Z,3.80
2018-09-29T02:33:12.974Z,3.80
2018-09-29T02:35:43.094Z,3.70
2018-09-29T02:38:13.169Z,3.70
2018-09-29T02:40:43.328Z,3.70
2018-09-29T02:43:13.423Z,3.70
2018-09-29T02:45:43.558Z,3.70
2018-09-29T02:48:13.700Z,3.60
2018-09-29T02:50:43.823Z,3.60
2018-09-29T02:53:13.925Z,3.60
2018-09-29T02:55:44.111Z,3.60
2018-09-29T02:58:14.230Z,3.50
2018-09-29T03:00:44.384Z,3.50
2018-09-29T03:03:14.504Z,3.50
2018-09-29T03:05:44.659Z,3.50
2018-09-29T03:08:14.784Z,3.50
2018-09-29T03:10:44.958Z,3.40
2018-09-29T03:13:15.093Z,3.40
2018-09-29T03:15:45.205Z,3.40
2018-09-29T03:18:15.324Z,3.50
2018-09-29T03:20:45.469Z,3.40
2018-09-29T03:23:15.634Z,3.40
2018-09-29T03:25:45.718Z,3.40
2018-09-29T03:28:15.868Z,3.40
2018-09-29T03:30:46.006Z,3.30
2018-09-29T03:33:16.060Z,3.40
2018-09-29T03:35:46.174Z,3.30
2018-09-29T03:38:16.275Z,3.40
2018-09-29T03:40:46.421Z,3.30
2018-09-29T03:43:16.610Z,3.30
2018-09-29T03:45:46.755Z,3.20
2018-09-29T03:48:16.867Z,3.20
2018-09-29T03:50:47.086Z,3.20
2018-09-29T03:53:17.192Z,3.20
2018-09-29T03:55:47.320Z,3.10
2018-09-29T03:58:17.401Z,3.10
2018-09-29T04:00:47.570Z,3.00
2018-09-29T04:03:17.716Z,3.00
2018-09-29T04:05:47.830Z,3.10
2018-09-29T04:08:17.948Z,3.10
2018-09-29T04:10:48.102Z,3.10
2018-09-29T04:13:18.215Z,3.00
2018-09-29T04:15:48.367Z,3.00
2018-09-29T04:18:18.534Z,2.90
2018-09-29T04:20:48.671Z,2.90
2018-09-29T04:23:19.156Z,2.90
2018-09-29T04:25:49.376Z,2.80
2018-09-29T04:28:19.516Z,2.80
2018-09-29T04:30:49.637Z,2.80
2018-09-29T04:33:19.781Z,2.80
2018-09-29T04:35:50.057Z,2.80
2018-09-29T04:38:20.205Z,2.70
2018-09-29T04:40:50.370Z,2.70
2018-09-29T04:43:20.609Z,2.70
2018-09-29T04:45:50.733Z,2.70
2018-09-29T04:48:20.865Z,2.70
2018-09-29T04:50:50.906Z,2.70
2018-09-29T04:53:21.006Z,2.80
2018-09-29T04:55:51.091Z,2.70
2018-09-29T04:58:21.335Z,2.70
2018-09-29T05:00:51.475Z,2.70
2018-09-29T05:03:21.619Z,2.70
2018-09-29T05:05:51.815Z,2.60
2018-09-29T05:08:21.960Z,2.60
2018-09-29T05:10:52.034Z,2.60
2018-09-29T05:13:22.209Z,2.50
2018-09-29T05:15:52.291Z,2.40
2018-09-29T05:18:22.498Z,2.40
2018-09-29T05:20:52.594Z,2.40
2018-09-29T05:23:22.861Z,2.40
2018-09-29T05:25:52.901Z,2.50
2018-09-29T05:28:23.051Z,2.50
2018-09-29T05:30:53.182Z,2.60
2018-09-29T05:33:23.299Z,2.60
2018-09-29T05:35:53.542Z,2.60
2018-09-29T05:38:23.718Z,2.50
2018-09-29T05:40:53.802Z,2.50
2018-09-29T05:43:23.991Z,2.50
2018-09-29T05:45:54.069Z,2.60
2018-09-29T05:48:24.198Z,2.70
2018-09-29T05:50:54.267Z,2.80
2018-09-29T05:53:24.434Z,2.80
2018-09-29T05:55:54.537Z,2.90
2018-09-29T05:58:25.336Z,2.90
2018-09-29T06:00:55.464Z,2.90
2018-09-29T06:03:25.599Z,3.00
2018-09-29T06:05:55.851Z,3.00
2018-09-29T06:08:25.895Z,3.10
2018-09-29T06:10:56.106Z,3.10
2018-09-29T06:13:26.188Z,3.20
2018-09-29T06:15:56.485Z,3.30
2018-09-29T06:18:26.716Z,3.40
2018-09-29T06:20:56.965Z,3.60
2018-09-29T06:23:27.233Z,3.70
2018-09-29T06:25:57.329Z,3.90
2018-09-29T06:28:27.439Z,4.10
2018-09-29T06:30:57.583Z,4.20
2018-09-29T06:33:27.714Z,4.40
2018-09-29T06:35:59.031Z,4.60
2018-09-29T06:38:29.227Z,4.70
2018-09-29T06:40:59.322Z,4.80
2018-09-29T06:43:29.493Z,5.00
2018-09-29T06:45:59.695Z,5.10
2018-09-29T06:48:29.930Z,5.30
2018-09-29T06:51:00.012Z,5.50
2018-09-29T06:53:30.295Z,6.10
2018-09-29T06:56:00.455Z,6.90
2018-09-29T06:58:30.688Z,7.50
2018-09-29T07:01:00.884Z,8.20
2018-09-29T07:03:31.129Z,8.60
2018-09-29T07:06:01.190Z,9.20
2018-09-29T07:08:31.299Z,9.80
2018-09-29T07:11:01.514Z,10.30
2018-09-29T07:13:31.588Z,10.90
2018-09-29T07:16:01.880Z,11.40
2018-09-29T07:18:32.226Z,11.60
2018-09-29T07:21:02.391Z,12.20
2018-09-29T07:23:32.734Z,12.60
2018-09-29T07:26:02.841Z,13.00
2018-09-29T07:28:33.065Z,13.10
2018-09-29T07:31:03.234Z,13.20
2018-09-29T07:33:33.378Z,12.90
2018-09-29T07:36:03.579Z,13.10
2018-09-29T07:38:33.858Z,13.30
2018-09-29T07:41:04.138Z,13.40
2018-09-29T07:43:34.460Z,13.70
2018-09-29T07:46:04.588Z,14.20
2018-09-29T07:48:34.772Z,14.30
2018-09-29T07:51:04.909Z,14.00
2018-09-29T07:53:35.217Z,14.30
2018-09-29T07:56:06.024Z,14.70
2018-09-29T07:58:36.121Z,14.70
2018-09-29T08:01:06.344Z,14.50
2018-09-29T08:03:36.491Z,15.00
2018-09-29T08:06:06.599Z,15.30
2018-09-29T08:08:36.686Z,15.30
2018-09-29T08:11:06.751Z,15.60
2018-09-29T08:13:36.920Z,15.90
2018-09-29T08:16:07.229Z,15.70
2018-09-29T08:18:37.454Z,15.80
2018-09-29T08:21:07.566Z,15.90
2018-09-29T08:23:37.924Z,16.20
2018-09-29T08:26:08.082Z,16.60
2018-09-29T08:28:38.215Z,16.60
2018-09-29T08:31:08.567Z,16.70
2018-09-29T08:33:38.706Z,16.80
2018-09-29T08:36:08.827Z,17.00
2018-09-29T08:38:38.956Z,17.00
2018-09-29T08:41:09.063Z,16.90
2018-09-29T08:43:39.222Z,16.90
2018-09-29T08:46:25.975Z,17.00
2018-09-29T08:49:06.354Z,17.20
2018-09-29T08:51:38.088Z,16.70
2018-09-29T08:54:08.512Z,16.50
2018-09-29T08:56:38.662Z,16.20
2018-09-29T08:59:08.909Z,16.30
2018-09-29T09:01:39.064Z,16.70
2018-09-29T09:04:09.399Z,16.90
2018-09-29T09:06:39.528Z,17.10
2018-09-29T09:09:11.105Z,17.40
2018-09-29T09:11:41.477Z,17.50
2018-09-29T09:14:11.758Z,17.60
2018-09-29T09:16:41.954Z,17.30
2018-09-29T09:19:12.088Z,17.40
2018-09-29T09:21:42.170Z,17.10
2018-09-29T09:24:12.410Z,16.80
2018-09-29T09:26:42.482Z,16.30
2018-09-29T09:29:12.597Z,15.90
2018-09-29T09:31:42.663Z,15.60
2018-09-29T09:34:12.812Z,15.20
2018-09-29T09:36:42.898Z,14.90
2018-09-29T09:39:13.655Z,14.50
2018-09-29T09:41:43.778Z,14.30
2018-09-29T09:44:13.910Z,14.10
2018-09-29T09:46:44.060Z,14.10
2018-09-29T09:49:14.173Z,13.90
2018-09-29T09:51:44.240Z,13.80
2018-09-29T09:54:14.353Z,13.60
2018-09-29T09:56:44.494Z,13.40
2018-09-29T09:59:14.704Z,13.50
2018-09-29T10:02:52.642Z,13.50
2018-09-29T10:05:22.820Z,13.50
2018-09-29T10:07:52.943Z,13.40
2018-09-29T10:10:23.151Z,13.40
2018-09-29T10:12:53.266Z,13.50
2018-09-29T10:15:23.429Z,13.60
2018-09-29T10:17:53.515Z,13.60
2018-09-29T10:20:23.673Z,13.60
2018-09-29T10:22:53.751Z,13.60
2018-09-29T10:25:23.842Z,13.60
2018-09-29T10:27:53.971Z,13.60
2018-09-29T10:30:24.181Z,13.60
2018-09-29T10:32:54.245Z,13.50
2018-09-29T10:35:24.378Z,13.50
2018-09-29T10:37:54.491Z,13.40
2018-09-29T10:40:24.659Z,13.40
2018-09-29T10:42:54.793Z,13.40
2018-09-29T10:45:25.373Z,13.40
2018-09-29T10:47:55.440Z,13.40
2018-09-29T10:50:25.596Z,13.50
2018-09-29T10:52:55.722Z,13.60
2018-09-29T10:55:26.152Z,13.70
2018-09-29T10:57:56.236Z,13.70
2018-09-29T11:00:26.399Z,13.70
2018-09-29T11:02:56.595Z,13.60
2018-09-29T11:05:26.769Z,13.60
2018-09-29T11:07:56.832Z,13.60
2018-09-29T11:10:26.956Z,13.70
2018-09-29T11:12:57.542Z,13.80
2018-09-29T11:15:27.649Z,13.80
2018-09-29T11:17:57.728Z,13.90
2018-09-29T11:20:27.828Z,14.00
2018-09-29T11:22:57.973Z,13.80
2018-09-29T11:25:28.516Z,13.80
2018-09-29T11:27:59.172Z,13.80
2018-09-29T11:30:29.326Z,13.80
2018-09-29T11:32:59.465Z,13.90
2018-09-29T11:35:29.598Z,13.90
2018-09-29T11:37:59.811Z,13.90
2018-09-29T11:40:29.967Z,14.00
2018-09-29T11:43:00.039Z,14.20
2018-09-29T11:45:30.213Z,14.20
2018-09-29T11:48:00.389Z,14.10
2018-09-29T11:50:30.569Z,14.10
2018-09-29T11:53:00.646Z,14.10
2018-09-29T11:55:31.036Z,14.10
2018-09-29T11:58:01.118Z,14.10
2018-09-29T12:00:31.264Z,14.00
2018-09-29T12:03:01.405Z,14.00
2018-09-29T12:05:31.552Z,14.10
2018-09-29T12:08:01.825Z,14.10
2018-09-29T12:10:31.939Z,14.20
2018-09-29T12:13:02.044Z,14.20
2018-09-29T12:15:32.219Z,14.30
2018-09-29T12:18:02.366Z,14.40
2018-09-29T12:20:32.515Z,14.60
2018-09-29T12:23:02.654Z,14.50
2018-09-29T12:25:32.799Z,14.50
2018-09-29T12:28:02.936Z,14.40
2018-09-29T12:30:33.082Z,14.50
2018-09-29T12:33:03.186Z,14.40
2018-09-29T12:35:33.315Z,14.40
2018-09-29T12:38:03.388Z,14.50
2018-09-29T12:40:33.557Z,14.50
2018-09-29T12:43:03.659Z,14.50
2018-09-29T12:45:33.947Z,14.60
2018-09-29T12:48:04.126Z,14.50
2018-09-29T12:50:34.328Z,14.60
2018-09-29T12:53:04.398Z,14.60
2018-09-29T12:55:34.512Z,14.70
2018-09-29T12:58:04.602Z,14.70
2018-09-29T13:00:34.748Z,14.70
2018-09-29T13:03:05.035Z,14.60
2018-09-29T13:05:35.279Z,14.60
2018-09-29T13:08:05.644Z,14.60
2018-09-29T13:10:36.077Z,14.70
2018-09-29T13:13:06.611Z,14.80
2018-09-29T13:15:37.080Z,14.80
2018-09-29T13:18:07.182Z,14.80
2018-09-29T13:20:37.504Z,14.80
2018-09-29T13:23:07.671Z,14.80
2018-09-29T13:25:38.127Z,14.80
2018-09-29T13:28:08.296Z,14.80
2018-09-29T13:30:38.531Z,14.70
2018-09-29T13:33:08.815Z,14.80
2018-09-29T13:35:38.909Z,14.80
2018-09-29T13:38:09.058Z,14.80
2018-09-29T13:40:39.136Z,14.80
2018-09-29T13:43:09.182Z,14.80
2018-09-29T13:45:39.233Z,14.80
2018-09-29T13:48:09.623Z,14.80
2018-09-29T13:50:39.713Z,14.80
2018-09-29T13:53:09.749Z,14.90
2018-09-29T13:55:39.830Z,15.00
2018-09-29T13:58:09.856Z,15.10
2018-09-29T14:00:39.979Z,15.20
2018-09-29T14:03:10.168Z,15.20
2018-09-29T14:05:40.325Z,15.20
2018-09-29T14:08:10.402Z,15.10
2018-09-29T14:10:40.565Z,15.10
2018-09-29T14:13:10.761Z,15.10
2018-09-29T14:15:40.910Z,15.10
2018-09-29T14:18:11.074Z,15.10
2018-09-29T14:20:41.232Z,15.10
2018-09-29T14:23:11.323Z,15.00
2018-09-29T14:25:41.429Z,15.10
2018-09-29T14:28:11.474Z,15.00
2018-09-29T14:30:41.735Z,15.00
2018-09-29T14:33:11.878Z,15.00
2018-09-29T14:35:42.026Z,15.00
2018-09-29T14:38:12.254Z,15.00
2018-09-29T14:40:42.386Z,15.00
2018-09-29T14:43:12.511Z,15.00
2018-09-29T14:45:42.586Z,14.90
2018-09-29T14:48:12.727Z,14.90
2018-09-29T14:50:42.887Z,14.90
2018-09-29T14:53:13.000Z,14.90
2018-09-29T14:55:43.155Z,14.90
2018-09-29T14:58:13.334Z,15.00
2018-09-29T15:00:43.444Z,15.00
2018-09-29T15:03:13.503Z,15.00
2018-09-29T15:05:43.606Z,15.00
2018-09-29T15:08:13.657Z,15.00
2018-09-29T15:10:43.795Z,15.10
2018-09-29T15:13:13.870Z,15.20
2018-09-29T15:15:44.001Z,15.30
2018-09-29T15:18:14.054Z,15.40
2018-09-29T15:20:44.306Z,15.50
2018-09-29T15:23:14.508Z,15.50
2018-09-29T15:25:44.595Z,15.60
2018-09-29T15:28:14.730Z,15.70
2018-09-29T15:30:44.851Z,15.90
2018-09-29T15:33:14.930Z,16.10
2018-09-29T15:35:45.228Z,16.30
2018-09-29T15:38:15.304Z,16.40
2018-09-29T15:40:45.491Z,16.50
2018-09-29T15:43:15.719Z,16.70
2018-09-29T15:45:45.841Z,16.70
2018-09-29T15:48:16.144Z,16.80
2018-09-29T15:50:46.232Z,17.10
2018-09-29T15:53:16.384Z,17.00
2018-09-29T15:55:46.494Z,16.40
2018-09-29T15:58:16.562Z,15.80
2018-09-29T16:00:46.662Z,15.40
2018-09-29T16:03:16.717Z,15.10
2018-09-29T16:05:53.419Z,14.80
2018-09-29T16:08:23.642Z,14.60
2018-09-29T16:10:53.803Z,14.50
2018-09-29T16:13:23.892Z,14.40
2018-09-29T16:15:54.008Z,14.20
2018-09-29T16:18:24.159Z,14.10
2018-09-29T16:20:54.290Z,13.90
2018-09-29T16:23:24.341Z,13.80
2018-09-29T16:25:54.438Z,13.70
2018-09-29T16:28:24.535Z,13.70
2018-09-29T16:30:54.664Z,13.60
2018-09-29T16:33:25.881Z,13.60
2018-09-29T16:35:56.039Z,13.50
2018-09-29T16:38:26.131Z,13.40
2018-09-29T16:40:56.214Z,13.30
2018-09-29T16:43:26.430Z,13.20
2018-09-29T16:45:56.515Z,13.10
2018-09-29T16:48:26.662Z,12.90
2018-09-29T16:50:56.752Z,12.80
2018-09-29T16:53:26.975Z,12.70
2018-09-29T16:55:57.045Z,12.80
2018-09-29T16:58:29.986Z,12.70
2018-09-29T17:01:00.081Z,12.60
2018-09-29T17:03:30.227Z,12.50
2018-09-29T17:06:00.377Z,12.40
2018-09-29T17:08:30.429Z,12.20
2018-09-29T17:11:00.642Z,12.10
2018-09-29T17:13:30.678Z,12.00
2018-09-29T17:16:00.890Z,11.90
2018-09-29T17:18:30.955Z,11.80
2018-09-29T17:21:01.096Z,11.70
2018-09-29T17:23:31.283Z,11.60
2018-09-29T17:26:01.468Z,11.50
2018-09-29T17:28:31.593Z,11.40
2018-09-29T17:31:01.923Z,11.30
2018-09-29T17:33:32.051Z,11.30
2018-09-29T17:36:02.487Z,11.30
2018-09-29T17:38:32.621Z,11.20
2018-09-29T17:41:03.317Z,11.10
2018-09-29T17:43:33.549Z,11.10
2018-09-29T17:46:03.885Z,11.10
2018-09-29T17:48:34.466Z,11.00
2018-09-29T17:51:04.664Z,10.90
2018-09-29T17:53:35.164Z,10.80
2018-09-29T17:56:05.481Z,10.70
2018-09-29T17:58:35.859Z,10.60
2018-09-29T18:01:06.628Z,10.60
2018-09-29T18:03:36.889Z,10.50
2018-09-29T18:06:07.490Z,10.40
2018-09-29T18:08:38.089Z,10.30
2018-09-29T18:11:08.782Z,10.20
2018-09-29T18:13:38.960Z,10.10
2018-09-29T18:16:09.447Z,10.00
2018-09-29T18:18:39.665Z,9.90
2018-09-29T18:21:09.925Z,9.80
2018-09-29T18:23:40.106Z,9.70
2018-09-29T18:26:10.506Z,9.60
2018-09-29T18:28:41.006Z,9.60
2018-09-29T18:31:11.260Z,9.60
2018-09-29T18:33:41.332Z,9.50
2018-09-29T18:36:11.426Z,9.50
2018-09-29T18:38:41.568Z,9.40
2018-09-29T18:41:11.930Z,9.40
2018-09-29T18:43:42.262Z,9.30
2018-09-29T18:46:12.628Z,9.30
2018-09-29T18:48:42.908Z,9.20
2018-09-29T18:51:13.156Z,9.20
2018-09-29T18:53:43.554Z,9.10
2018-09-29T18:56:13.848Z,9.00
2018-09-29T18:58:44.182Z,8.90
2018-09-29T19:01:14.490Z,8.90
2018-09-29T19:03:45.070Z,8.90
2018-09-29T19:06:15.961Z,8.90
2018-09-29T19:08:46.201Z,8.80
2018-09-29T19:11:16.587Z,8.80
2018-09-29T19:13:46.849Z,8.80
2018-09-29T19:16:17.273Z,8.80
2018-09-29T19:18:47.358Z,8.80
2018-09-29T19:21:17.535Z,8.90
2018-09-29T19:23:47.624Z,8.80
2018-09-29T19:26:17.701Z,8.80
2018-09-29T19:28:47.834Z,8.70
2018-09-29T19:31:17.926Z,8.60
2018-09-29T19:33:48.126Z,8.60
2018-09-29T19:36:18.174Z,8.60
2018-09-29T19:38:48.253Z,8.50
2018-09-29T19:41:18.371Z,8.50
2018-09-29T19:43:48.509Z,8.40
2018-09-29T19:46:18.579Z,8.40
2018-09-29T19:48:48.702Z,8.40
2018-09-29T19:51:18.820Z,8.30
2018-09-29T19:53:48.883Z,8.40
2018-09-29T19:56:19.012Z,8.40
2018-09-29T19:58:49.086Z,8.50
2018-09-29T20:01:19.177Z,8.50
2018-09-29T20:03:49.335Z,8.50
2018-09-29T20:06:19.435Z,8.50
2018-09-29T20:08:49.517Z,8.50
2018-09-29T20:11:19.605Z,8.40
2018-09-29T20:13:49.700Z,8.30
2018-09-29T20:16:19.828Z,8.10
2018-09-29T20:18:49.865Z,8.00
2018-09-29T20:21:19.912Z,7.90
2018-09-29T20:23:49.959Z,7.80
2018-09-29T20:26:20.002Z,7.70
2018-09-29T20:28:50.038Z,7.70
2018-09-29T20:31:20.278Z,7.60
2018-09-29T20:33:50.457Z,7.60
2018-09-29T20:36:20.668Z,7.50
2018-09-29T20:38:50.724Z,7.40
2018-09-29T20:41:20.833Z,7.30
2018-09-29T20:43:50.961Z,7.20
2018-09-29T20:46:21.111Z,7.10
2018-09-29T20:48:51.206Z,7.00
2018-09-29T20:51:21.322Z,6.90
2018-09-29T20:53:51.496Z,6.90
2018-09-29T20:56:21.583Z,6.80
2018-09-29T20:58:51.596Z,6.80
2018-09-29T21:01:21.722Z,6.80
2018-09-29T21:03:51.720Z,6.70
2018-09-29T21:06:21.839Z,6.70
2018-09-29T21:08:51.894Z,6.60
2018-09-29T21:11:21.925Z,6.60
2018-09-29T21:13:51.997Z,6.50
2018-09-29T21:16:22.052Z,6.50
2018-09-29T21:18:52.049Z,6.40
2018-09-29T21:21:22.161Z,6.30
2018-09-29T21:23:52.208Z,6.20
2018-09-29T21:26:22.281Z,6.10
2018-09-29T21:28:52.298Z,6.10
2018-09-29T21:31:22.347Z,6.10
2018-09-29T21:33:52.404Z,6.00
2018-09-29T21:36:22.587Z,6.00
2018-09-29T21:38:52.619Z,5.90
2018-09-29T21:41:22.700Z,5.90
2018-09-29T21:43:52.821Z,5.80
2018-09-29T21:46:22.891Z,5.80
2018-09-29T21:48:52.959Z,5.80
2018-09-29T21:51:23.026Z,5.70
2018-09-29T21:53:53.043Z,5.80
2018-09-29T21:56:23.172Z,5.70
2018-09-29T21:58:53.242Z,5.80
2018-09-29T22:01:28.552Z,5.80
2018-09-29T22:03:58.606Z,5.80
2018-09-29T22:06:29.188Z,5.90
2018-09-29T22:08:59.869Z,5.90
2018-09-29T22:11:29.925Z,5.90
2018-09-29T22:13:59.941Z,5.80
2018-09-29T22:16:30.073Z,5.80
2018-09-29T22:19:00.108Z,5.70
2018-09-29T22:21:30.199Z,5.70
2018-09-29T22:24:00.253Z,5.60
2018-09-29T22:26:30.350Z,5.50
2018-09-29T22:29:00.339Z,5.50
2018-09-29T22:31:30.414Z,5.50
2018-09-29T22:34:00.427Z,5.40
2018-09-29T22:36:30.487Z,5.50
2018-09-29T22:39:00.571Z,5.40
2018-09-29T22:41:30.767Z,5.40
2018-09-29T22:44:00.795Z,5.40
2018-09-29T22:46:30.867Z,5.50
2018-09-29T22:49:00.999Z,5.50
2018-09-29T22:51:31.094Z,5.50
2018-09-29T22:54:01.151Z,5.50
2018-09-29T22:56:31.218Z,5.50
2018-09-29T22:59:01.219Z,5.40
2018-09-29T23:01:31.352Z,5.40
2018-09-29T23:04:01.379Z,5.40
2018-09-29T23:06:31.445Z,5.30
2018-09-29T23:09:01.514Z,5.30
2018-09-29T23:11:31.576Z,5.20
2018-09-29T23:14:01.662Z,5.10
2018-09-29T23:16:31.779Z,5.10
2018-09-29T23:19:01.890Z,5.00
2018-09-29T23:21:31.943Z,5.00
2018-09-29T23:24:02.033Z,5.00
2018-09-29T23:26:32.133Z,5.00
2018-09-29T23:29:02.223Z,4.90
2018-09-29T23:31:32.369Z,4.80
2018-09-29T23:34:02.451Z,4.80
2018-09-29T23:36:32.628Z,4.70
2018-09-29T23:39:02.861Z,4.70
2018-09-29T23:41:33.027Z,4.60
2018-09-29T23:44:03.066Z,4.60
2018-09-29T23:46:33.481Z,4.60
2018-09-29T23:49:03.601Z,4.60
2018-09-29T23:51:33.722Z,4.60
2018-09-29T23:54:03.846Z,4.50
2018-09-29T23:56:33.937Z,4.40
2018-09-29T23:59:04.104Z,4.40
